createdAt,value
2016-09-11T00:00:05.960Z,57.83
2016-09-11T00:01:04.681Z,57.83
2016-09-11T00:02:04.511Z,57.73
2016-09-11T00:03:04.767Z,57.83
2016-09-11T00:04:04.442Z,58.02
2016-09-11T00:05:04.426Z,57.73
2016-09-11T00:06:04.395Z,57.45
2016-09-11T00:07:04.548Z,58.02
2016-09-11T00:08:04.362Z,57.45
2016-09-11T00:09:04.360Z,57.54
2016-09-11T00:10:04.754Z,57.35
2016-09-11T00:11:04.329Z,57.73
2016-09-11T00:12:04.282Z,57.73
2016-09-11T00:13:04.258Z,57.73
2016-09-11T00:14:04.567Z,57.73
2016-09-11T00:15:05.134Z,58.4
2016-09-11T00:16:04.518Z,58.22
2016-09-11T00:17:04.184Z,58.12
2016-09-11T00:18:04.170Z,58.02
2016-09-11T00:19:04.211Z,58.02
2016-09-11T00:20:04.238Z,58.12
2016-09-11T00:21:04.136Z,58.22
2016-09-11T00:22:04.090Z,58.31
2016-09-11T00:23:04.121Z,58.12
2016-09-11T00:24:04.044Z,58.02
2016-09-11T00:25:04.383Z,58.02
2016-09-11T00:26:04.033Z,58.02
2016-09-11T00:27:04.270Z,58.02
2016-09-11T00:28:04.098Z,58.02
2016-09-11T00:29:03.954Z,58.22
2016-09-11T00:30:03.969Z,58.02
2016-09-11T00:31:04.068Z,58.02
2016-09-11T00:32:03.896Z,58.02
2016-09-11T00:33:03.923Z,58.02
2016-09-11T00:34:03.996Z,58.02
2016-09-11T00:35:04.181Z,58.22
2016-09-11T00:36:03.814Z,58.12
2016-09-11T00:37:03.791Z,58.02
2016-09-11T00:38:04.078Z,58.02
2016-09-11T00:39:03.753Z,58.02
2016-09-11T00:40:04.628Z,58.02
2016-09-11T00:41:03.748Z,58.31
2016-09-11T00:42:03.693Z,58.22
2016-09-11T00:43:03.678Z,58.02
2016-09-11T00:44:03.658Z,57.83
2016-09-11T00:45:04.024Z,58.12
2016-09-11T00:46:03.620Z,57.83
2016-09-11T00:47:03.753Z,58.12
2016-09-11T00:48:03.626Z,58.22
2016-09-11T00:49:03.805Z,58.22
2016-09-11T00:50:04.977Z,57.64
2016-09-11T00:51:03.564Z,57.64
2016-09-11T00:52:03.514Z,57.83
2016-09-11T00:53:03.482Z,57.73
2016-09-11T00:54:03.459Z,57.73
2016-09-11T00:55:04.843Z,57.35
2016-09-11T00:56:03.425Z,57.45
2016-09-11T00:57:03.403Z,57.45
2016-09-11T00:58:03.387Z,58.12
2016-09-11T00:59:03.442Z,58.22
2016-09-11T01:00:03.358Z,57.45
2016-09-11T01:01:03.410Z,57.8
2016-09-11T01:02:03.318Z,57.6
2016-09-11T01:03:03.302Z,57.45
2016-09-11T01:04:03.579Z,58.22
2016-09-11T01:05:03.250Z,57.51
2016-09-11T01:06:03.234Z,57.8
2016-09-11T01:07:03.209Z,57.83
2016-09-11T01:08:03.215Z,58.28
2016-09-11T01:09:03.167Z,58.12
2016-09-11T01:10:03.957Z,57.99
2016-09-11T01:11:03.129Z,57.8
2016-09-11T01:12:03.114Z,57.99
2016-09-11T01:13:03.111Z,57.99
2016-09-11T01:14:03.070Z,57.9
2016-09-11T01:15:03.069Z,58.09
2016-09-11T01:16:03.057Z,58.18
2016-09-11T01:17:03.042Z,57.9
2016-09-11T01:18:03.016Z,58.09
2016-09-11T01:19:02.976Z,58.09
2016-09-11T01:20:03.577Z,58.09
2016-09-11T01:21:03.057Z,58.09
2016-09-11T01:22:02.939Z,58.37
2016-09-11T01:23:02.904Z,57.99
2016-09-11T01:24:03.445Z,58.47
2016-09-11T01:25:02.853Z,58.47
2016-09-11T01:26:02.957Z,58.47
2016-09-11T01:27:02.823Z,58.28
2016-09-11T01:28:02.811Z,58.37
2016-09-11T01:29:02.781Z,58.37
2016-09-11T01:30:02.872Z,58.47
2016-09-11T01:31:02.860Z,58.47
2016-09-11T01:32:03.074Z,58.76
2016-09-11T01:33:02.693Z,58.76
2016-09-11T01:34:02.674Z,58.57
2016-09-11T01:35:02.827Z,58.67
2016-09-11T01:36:02.703Z,58.67
2016-09-11T01:37:02.913Z,58.47
2016-09-11T01:38:02.604Z,58.47
2016-09-11T01:39:02.644Z,59.02
2016-09-11T01:40:02.776Z,58.57
2016-09-11T01:41:02.720Z,58.54
2016-09-11T01:42:02.550Z,58.64
2016-09-11T01:43:02.671Z,58.67
2016-09-11T01:44:02.486Z,59.15
2016-09-11T01:45:02.879Z,59.02
2016-09-11T01:46:02.760Z,58.92
2016-09-11T01:47:02.485Z,59.12
2016-09-11T01:48:02.580Z,59.02
2016-09-11T01:49:02.648Z,58.92
2016-09-11T01:50:02.815Z,59.12
2016-09-11T01:51:02.676Z,59.02
2016-09-11T01:52:02.354Z,59.02
2016-09-11T01:53:02.380Z,59.12
2016-09-11T01:54:02.516Z,59.22
2016-09-11T01:55:02.740Z,59.12
2016-09-11T01:56:02.511Z,58.83
2016-09-11T01:57:02.649Z,59.31
2016-09-11T01:58:02.301Z,59.12
2016-09-11T01:59:02.245Z,59.02
2016-09-11T02:00:02.812Z,59.22
2016-09-11T02:01:02.146Z,59.12
2016-09-11T02:02:02.156Z,59.22
2016-09-11T02:03:02.234Z,58.92
2016-09-11T02:04:02.210Z,58.92
2016-09-11T02:05:02.483Z,58.64
2016-09-11T02:06:02.217Z,59.02
2016-09-11T02:07:02.044Z,59.22
2016-09-11T02:08:01.994Z,59.31
2016-09-11T02:09:01.972Z,59.22
2016-09-11T02:10:02.209Z,59.22
2016-09-11T02:11:01.959Z,59.41
2016-09-11T02:12:01.914Z,59.22
2016-09-11T02:13:01.914Z,59.31
2016-09-11T02:14:01.877Z,59.31
2016-09-11T02:15:01.858Z,59.31
2016-09-11T02:16:01.831Z,59.22
2016-09-11T02:17:01.841Z,59.31
2016-09-11T02:18:01.807Z,59.31
2016-09-11T02:19:02.549Z,59.22
2016-09-11T02:20:01.755Z,59.31
2016-09-11T02:21:01.767Z,59.22
2016-09-11T02:22:01.817Z,58.92
2016-09-11T02:23:01.705Z,59.31
2016-09-11T02:24:01.698Z,59.02
2016-09-11T02:25:01.654Z,59.12
2016-09-11T02:26:01.757Z,58.64
2016-09-11T02:27:01.753Z,59.12
2016-09-11T02:28:01.624Z,58.92
2016-09-11T02:29:01.593Z,58.92
2016-09-11T02:30:01.869Z,58.92
2016-09-11T02:31:01.589Z,58.83
2016-09-11T02:32:01.512Z,58.92
2016-09-11T02:33:01.789Z,59.12
2016-09-11T02:34:01.784Z,58.92
2016-09-11T02:35:01.474Z,58.83
2016-09-11T02:36:01.494Z,59.02
2016-09-11T02:37:01.409Z,58.73
2016-09-11T02:38:01.386Z,58.83
2016-09-11T02:39:01.409Z,59.12
2016-09-11T02:40:01.349Z,58.83
2016-09-11T02:41:01.387Z,59.12
2016-09-11T02:42:01.314Z,58.92
2016-09-11T02:43:01.290Z,58.92
2016-09-11T02:44:01.271Z,58.92
2016-09-11T02:45:01.528Z,59.02
2016-09-11T02:46:01.529Z,59.31
2016-09-11T02:47:01.211Z,58.83
2016-09-11T02:48:01.186Z,59.12
2016-09-11T02:49:01.285Z,59.22
2016-09-11T02:50:01.240Z,59.22
2016-09-11T02:51:01.123Z,59.22
2016-09-11T02:52:01.112Z,59.31
2016-09-11T02:53:01.149Z,59.22
2016-09-11T02:54:01.069Z,59.6
2016-09-11T02:55:01.052Z,59.31
2016-09-11T02:56:01.041Z,59.69
2016-09-11T02:57:01.005Z,59.41
2016-09-11T02:58:00.998Z,59.22
2016-09-11T02:59:00.968Z,59.41
2016-09-11T03:00:00.974Z,59.99
2016-09-11T03:01:00.957Z,59.79
2016-09-11T03:02:00.909Z,59.79
2016-09-11T03:03:00.886Z,59.79
2016-09-11T03:04:00.872Z,59.69
2016-09-11T03:05:00.840Z,59.89
2016-09-11T03:06:01.126Z,59.89
2016-09-11T03:07:00.815Z,59.89
2016-09-11T03:08:00.866Z,59.69
2016-09-11T03:09:00.776Z,59.69
2016-09-11T03:10:00.742Z,59.5
2016-09-11T03:11:00.812Z,59.89
2016-09-11T03:12:00.699Z,59.6
2016-09-11T03:13:00.686Z,60.17
2016-09-11T03:14:00.668Z,59.69
2016-09-11T03:15:00.667Z,60.66
2016-09-11T03:16:00.840Z,60.46
2016-09-11T03:17:00.600Z,60.56
2016-09-11T03:18:00.591Z,60.14
2016-09-11T03:19:00.559Z,60.08
2016-09-11T03:20:00.550Z,60.34
2016-09-11T03:21:00.522Z,60.27
2016-09-11T03:22:00.649Z,60.24
2016-09-11T03:23:00.545Z,60.34
2016-09-11T03:24:00.479Z,60.34
2016-09-11T03:25:00.444Z,60.43
2016-09-11T03:26:00.425Z,60.37
2016-09-11T03:27:00.595Z,60.24
2016-09-11T03:28:00.531Z,60.63
2016-09-11T03:29:00.517Z,60.24
2016-09-11T03:30:00.700Z,60.72
2016-09-11T03:31:00.311Z,60.46
2016-09-11T03:32:00.322Z,60.43
2016-09-11T03:33:00.358Z,60.63
2016-09-11T03:34:00.260Z,60.53
2016-09-11T03:35:00.245Z,60.75
2016-09-11T03:36:00.510Z,60.82
2016-09-11T03:37:00.260Z,61.01
2016-09-11T03:38:00.172Z,61.14
2016-09-11T03:39:00.158Z,60.53
2016-09-11T03:40:00.147Z,60.53
2016-09-11T03:41:00.111Z,60.72
2016-09-11T03:42:00.103Z,60.75
2016-09-11T03:43:00.069Z,60.53
2016-09-11T03:44:00.182Z,60.34
2016-09-11T03:45:00.090Z,60.72
2016-09-11T03:46:00.044Z,60.82
2016-09-11T03:47:00.001Z,60.53
2016-09-11T03:47:59.969Z,60.43
2016-09-11T03:48:59.948Z,60.63
2016-09-11T03:49:59.927Z,60.82
2016-09-11T03:50:59.909Z,60.56
2016-09-11T03:51:59.886Z,60.43
2016-09-11T03:52:59.868Z,60.91
2016-09-11T03:53:59.853Z,60.85
2016-09-11T03:55:00.368Z,60.53
2016-09-11T03:55:59.805Z,60.63
2016-09-11T03:56:59.793Z,60.53
2016-09-11T03:57:59.782Z,60.85
2016-09-11T03:58:59.748Z,60.66
2016-09-11T03:59:59.741Z,60.56
2016-09-11T04:00:59.709Z,60.66
2016-09-11T04:01:59.689Z,60.82
2016-09-11T04:02:59.667Z,60.56
2016-09-11T04:03:59.651Z,60.46
2016-09-11T04:04:59.627Z,60.66
2016-09-11T04:05:59.611Z,60.75
2016-09-11T04:06:59.593Z,60.75
2016-09-11T04:07:59.611Z,60.85
2016-09-11T04:08:59.547Z,60.37
2016-09-11T04:09:59.537Z,60.27
2016-09-11T04:10:59.523Z,60.37
2016-09-11T04:11:59.784Z,60.17
2016-09-11T04:12:59.470Z,60.27
2016-09-11T04:13:59.445Z,60.46
2016-09-11T04:14:59.432Z,59.79
2016-09-11T04:15:59.406Z,59.89
2016-09-11T04:16:59.386Z,59.89
2016-09-11T04:17:59.377Z,59.6
2016-09-11T04:18:59.346Z,59.69
2016-09-11T04:19:59.326Z,59.89
2016-09-11T04:20:59.307Z,59.99
2016-09-11T04:21:59.595Z,59.89
2016-09-11T04:22:59.268Z,59.99
2016-09-11T04:23:59.253Z,60.08
2016-09-11T04:25:10.336Z,59.89
2016-09-11T04:25:59.206Z,60.17
2016-09-11T04:26:59.258Z,60.17
2016-09-11T04:27:59.164Z,59.69
2016-09-11T04:28:59.143Z,59.69
2016-09-11T04:29:59.125Z,59.6
2016-09-11T04:30:59.105Z,59.79
2016-09-11T04:31:59.085Z,59.79
2016-09-11T04:32:59.065Z,59.79
2016-09-11T04:33:59.044Z,59.79
2016-09-11T04:34:59.025Z,59.89
2016-09-11T04:35:59.005Z,59.99
2016-09-11T04:36:58.987Z,59.31
2016-09-11T04:37:58.966Z,59.22
2016-09-11T04:38:58.947Z,59.31
2016-09-11T04:39:58.924Z,59.69
2016-09-11T04:40:58.905Z,59.31
2016-09-11T04:41:58.885Z,59.41
2016-09-11T04:42:58.866Z,59.5
2016-09-11T04:43:58.866Z,59.5
2016-09-11T04:44:58.826Z,59.22
2016-09-11T04:45:58.807Z,59.31
2016-09-11T04:46:58.791Z,59.5
2016-09-11T04:47:58.767Z,59.31
2016-09-11T04:48:58.755Z,59.22
2016-09-11T04:49:58.735Z,59.02
2016-09-11T04:50:58.706Z,59.02
2016-09-11T04:51:58.698Z,59.22
2016-09-11T04:52:58.667Z,59.02
2016-09-11T04:53:58.647Z,59.05
2016-09-11T04:54:58.626Z,59.02
2016-09-11T04:55:58.608Z,59.22
2016-09-11T04:56:58.587Z,59.05
2016-09-11T04:57:58.567Z,59.05
2016-09-11T04:58:58.547Z,59.34
2016-09-11T04:59:58.528Z,59.31
2016-09-11T05:00:58.508Z,59.22
2016-09-11T05:01:58.499Z,59.12
2016-09-11T05:02:58.467Z,59.12
2016-09-11T05:03:58.448Z,59.05
2016-09-11T05:04:58.428Z,59.22
2016-09-11T05:05:58.408Z,58.95
2016-09-11T05:06:58.388Z,59.12
2016-09-11T05:07:58.381Z,59.31
2016-09-11T05:08:58.348Z,59.02
2016-09-11T05:09:58.329Z,58.92
2016-09-11T05:10:58.309Z,59.02
2016-09-11T05:11:58.290Z,58.64
2016-09-11T05:12:58.268Z,59.02
2016-09-11T05:13:58.249Z,58.67
2016-09-11T05:14:58.229Z,58.92
2016-09-11T05:15:58.216Z,59.15
2016-09-11T05:16:58.192Z,59.15
2016-09-11T05:17:58.171Z,59.15
2016-09-11T05:18:58.151Z,59.05
2016-09-11T05:19:58.131Z,59.05
2016-09-11T05:20:58.111Z,58.95
2016-09-11T05:21:58.092Z,58.67
2016-09-11T05:22:58.073Z,58.47
2016-09-11T05:23:58.050Z,58.67
2016-09-11T05:24:58.032Z,58.47
2016-09-11T05:25:58.012Z,58.57
2016-09-11T05:26:57.993Z,58.67
2016-09-11T05:27:57.984Z,58.37
2016-09-11T05:28:57.957Z,58.28
2016-09-11T05:29:57.934Z,58.47
2016-09-11T05:30:57.915Z,58.57
2016-09-11T05:31:57.896Z,58.47
2016-09-11T05:32:57.879Z,58.47
2016-09-11T05:33:57.876Z,58.09
2016-09-11T05:34:57.838Z,57.8
2016-09-11T05:35:57.818Z,57.99
2016-09-11T05:36:57.799Z,58.09
2016-09-11T05:37:57.779Z,58.31
2016-09-11T05:38:57.760Z,58.02
2016-09-11T05:39:57.740Z,58.02
2016-09-11T05:40:57.726Z,58.18
2016-09-11T05:41:57.702Z,57.7
2016-09-11T05:42:57.682Z,57.45
2016-09-11T05:43:57.664Z,57.99
2016-09-11T05:44:57.645Z,57.8
2016-09-11T05:45:57.625Z,57.25
2016-09-11T05:46:57.905Z,57.73
2016-09-11T05:47:57.591Z,57.83
2016-09-11T05:48:57.567Z,57.54
2016-09-11T05:49:57.548Z,57.73
2016-09-11T05:50:57.529Z,57.83
2016-09-11T05:51:57.510Z,57.64
2016-09-11T05:52:57.538Z,57.15
2016-09-11T05:53:57.472Z,56.96
2016-09-11T05:54:57.453Z,57.54
2016-09-11T05:55:57.433Z,57.54
2016-09-11T05:56:57.414Z,57.35
2016-09-11T05:57:57.396Z,57.25
2016-09-11T05:58:57.377Z,56.96
2016-09-11T05:59:57.357Z,57.06
2016-09-11T06:00:57.339Z,56.87
2016-09-11T06:01:57.322Z,56.48
2016-09-11T06:02:57.304Z,56.77
2016-09-11T06:03:57.282Z,56.87
2016-09-11T06:04:57.264Z,56.96
2016-09-11T06:05:57.245Z,56.87
2016-09-11T06:06:57.226Z,56.67
2016-09-11T06:07:57.207Z,56.87
2016-09-11T06:08:57.191Z,56.67
2016-09-11T06:09:57.178Z,56.87
2016-09-11T06:10:57.150Z,56.58
2016-09-11T06:11:57.137Z,56.29
2016-09-11T06:12:57.431Z,56.29
2016-09-11T06:13:57.110Z,56.32
2016-09-11T06:14:57.076Z,56.32
2016-09-11T06:15:57.060Z,56.41
2016-09-11T06:16:57.040Z,56.32
2016-09-11T06:17:57.036Z,56.22
2016-09-11T06:18:57.007Z,56.41
2016-09-11T06:19:57.297Z,56.32
2016-09-11T06:20:56.966Z,56.03
2016-09-11T06:21:56.951Z,56.03
2016-09-11T06:22:56.942Z,56.03
2016-09-11T06:23:56.935Z,55.93
2016-09-11T06:24:56.890Z,55.83
2016-09-11T06:25:57.009Z,55.74
2016-09-11T06:26:56.857Z,55.74
2016-09-11T06:27:56.838Z,55.65
2016-09-11T06:28:56.818Z,55.55
2016-09-11T06:29:56.814Z,55.74
2016-09-11T06:30:56.786Z,55.93
2016-09-11T06:31:56.771Z,56.03
2016-09-11T06:32:57.050Z,55.48
2016-09-11T06:33:57.031Z,55.87
2016-09-11T06:34:56.714Z,56.15
2016-09-11T06:35:56.690Z,55.38
2016-09-11T06:36:56.671Z,55
2016-09-11T06:37:56.657Z,55.09
2016-09-11T06:38:56.933Z,55.38
2016-09-11T06:39:56.624Z,55.09
2016-09-11T06:40:56.626Z,55.38
2016-09-11T06:41:56.719Z,55
2016-09-11T06:42:56.564Z,54.9
2016-09-11T06:43:56.859Z,54.25
2016-09-11T06:44:56.550Z,54.06
2016-09-11T06:45:56.517Z,54.44
2016-09-11T06:46:56.500Z,54.44
2016-09-11T06:47:56.594Z,54.44
2016-09-11T06:48:56.457Z,53.87
2016-09-11T06:49:56.449Z,54.06
2016-09-11T06:50:56.431Z,53.87
2016-09-11T06:51:56.408Z,53.87
2016-09-11T06:52:56.391Z,53.29
2016-09-11T06:53:56.388Z,53.67
2016-09-11T06:54:56.560Z,53.22
2016-09-11T06:55:56.338Z,53.41
2016-09-11T06:56:56.323Z,53.51
2016-09-11T06:57:56.304Z,52.93
2016-09-11T06:58:56.300Z,52.45
2016-09-11T06:59:56.376Z,52.35
2016-09-11T07:00:56.250Z,52.45
2016-09-11T07:01:56.232Z,52.55
2016-09-11T07:02:56.225Z,52.25
2016-09-11T07:03:56.210Z,51.77
2016-09-11T07:04:56.506Z,52.25
2016-09-11T07:05:56.181Z,51.89
2016-09-11T07:06:56.453Z,51.8
2016-09-11T07:07:56.172Z,51.8
2016-09-11T07:08:56.136Z,51.41
2016-09-11T07:09:56.113Z,51.51
2016-09-11T07:10:56.086Z,51.51
2016-09-11T07:11:56.066Z,51.12
2016-09-11T07:12:56.176Z,51.12
2016-09-11T07:13:56.043Z,50.93
2016-09-11T07:14:56.016Z,51.22
2016-09-11T07:15:55.999Z,51.32
2016-09-11T07:16:56.059Z,51.22
2016-09-11T07:17:56.024Z,51.32
2016-09-11T07:18:55.951Z,50.84
2016-09-11T07:19:55.937Z,51.22
2016-09-11T07:20:55.953Z,51.03
2016-09-11T07:21:55.904Z,50.84
2016-09-11T07:22:55.883Z,50.54
2016-09-11T07:23:55.902Z,50.93
2016-09-11T07:24:55.849Z,51.03
2016-09-11T07:25:55.837Z,50.45
2016-09-11T07:26:55.821Z,50.57
2016-09-11T07:27:56.115Z,50.45
2016-09-11T07:28:55.795Z,50.57
2016-09-11T07:29:55.775Z,50.28
2016-09-11T07:30:55.756Z,50.47
2016-09-11T07:31:55.739Z,50.38
2016-09-11T07:32:55.740Z,50.76
2016-09-11T07:33:55.787Z,50.09
2016-09-11T07:34:55.706Z,50.28
2016-09-11T07:35:55.711Z,50.38
2016-09-11T07:36:55.677Z,50.38
2016-09-11T07:37:55.673Z,50.28
2016-09-11T07:38:55.622Z,49.99
2016-09-11T07:39:55.614Z,49.51
2016-09-11T07:40:55.593Z,49.51
2016-09-11T07:41:55.575Z,49.51
2016-09-11T07:42:55.557Z,49.51
2016-09-11T07:43:55.623Z,49.32
2016-09-11T07:44:55.571Z,49.44
2016-09-11T07:45:55.520Z,48.95
2016-09-11T07:46:55.515Z,49.15
2016-09-11T07:47:55.910Z,49.34
2016-09-11T07:48:55.473Z,48.95
2016-09-11T07:49:55.448Z,49.15
2016-09-11T07:50:55.432Z,48.76
2016-09-11T07:51:55.416Z,49.05
2016-09-11T07:52:55.408Z,48.47
2016-09-11T07:53:55.690Z,48.47
2016-09-11T07:54:55.370Z,48.47
2016-09-11T07:55:55.354Z,48.3
2016-09-11T07:56:55.345Z,48.11
2016-09-11T07:57:55.338Z,47.91
2016-09-11T07:58:55.315Z,48.39
2016-09-11T07:59:55.295Z,47.81
2016-09-11T08:00:55.281Z,48.39
2016-09-11T08:01:55.263Z,47.91
2016-09-11T08:02:55.246Z,47.33
2016-09-11T08:03:55.232Z,47.63
2016-09-11T08:04:55.234Z,47.05
2016-09-11T08:05:55.202Z,47.53
2016-09-11T08:06:55.197Z,46.88
2016-09-11T08:07:55.198Z,47.07
2016-09-11T08:08:55.165Z,46.49
2016-09-11T08:09:55.586Z,46.49
2016-09-11T08:10:55.133Z,46.78
2016-09-11T08:11:55.115Z,46.49
2016-09-11T08:12:55.104Z,46.49
2016-09-11T08:13:55.089Z,46.39
2016-09-11T08:14:55.071Z,46.68
2016-09-11T08:15:55.127Z,46.22
2016-09-11T08:16:55.355Z,46.1
2016-09-11T08:17:55.106Z,46.32
2016-09-11T08:18:55.035Z,46.42
2016-09-11T08:19:54.995Z,46.12
2016-09-11T08:20:54.987Z,46.03
2016-09-11T08:21:54.966Z,45.83
2016-09-11T08:22:54.951Z,45.54
2016-09-11T08:23:54.940Z,45.64
2016-09-11T08:24:54.924Z,45.64
2016-09-11T08:25:54.918Z,45.83
2016-09-11T08:26:54.898Z,45.74
2016-09-11T08:27:54.884Z,45.74
2016-09-11T08:28:54.890Z,45.54
2016-09-11T08:29:55.166Z,45.54
2016-09-11T08:30:54.838Z,45.64
2016-09-11T08:31:54.849Z,45.93
2016-09-11T08:32:54.869Z,45.47
2016-09-11T08:33:54.810Z,45.47
2016-09-11T08:34:54.786Z,45.08
2016-09-11T08:35:54.767Z,45.28
2016-09-11T08:36:54.775Z,45.57
2016-09-11T08:37:54.741Z,45.1
2016-09-11T08:38:54.753Z,44.72
2016-09-11T08:39:54.722Z,44.72
2016-09-11T08:40:55.003Z,44.62
2016-09-11T08:41:54.688Z,44.72
2016-09-11T08:42:54.668Z,44.43
2016-09-11T08:43:54.681Z,44.33
2016-09-11T08:44:54.654Z,43.75
2016-09-11T08:45:54.639Z,44.13
2016-09-11T08:46:54.635Z,43.85
2016-09-11T08:47:54.601Z,43.96
2016-09-11T08:48:54.602Z,43.87
2016-09-11T08:49:54.643Z,43.96
2016-09-11T08:50:54.563Z,43.96
2016-09-11T08:51:54.860Z,43.85
2016-09-11T08:52:54.863Z,43.85
2016-09-11T08:53:54.533Z,43.75
2016-09-11T08:54:54.511Z,43.55
2016-09-11T08:55:54.497Z,43.85
2016-09-11T08:56:54.484Z,43
2016-09-11T08:57:54.467Z,43.19
2016-09-11T08:58:54.454Z,43.38
2016-09-11T08:59:54.444Z,43.29
2016-09-11T09:00:54.449Z,43.58
2016-09-11T09:01:54.417Z,42.9
2016-09-11T09:02:54.480Z,43.58
2016-09-11T09:03:54.394Z,43.58
2016-09-11T09:04:54.511Z,43.58
2016-09-11T09:05:54.369Z,42.9
2016-09-11T09:06:54.361Z,42.71
2016-09-11T09:07:54.341Z,42.61
2016-09-11T09:08:54.330Z,42.71
2016-09-11T09:09:54.409Z,42.8
2016-09-11T09:10:54.328Z,43.09
2016-09-11T09:11:54.287Z,43
2016-09-11T09:12:54.273Z,42.71
2016-09-11T09:13:54.279Z,42.8
2016-09-11T09:14:54.251Z,42.51
2016-09-11T09:15:54.237Z,42.51
2016-09-11T09:16:54.221Z,42.54
2016-09-11T09:17:54.290Z,42.32
2016-09-11T09:18:54.223Z,42.32
2016-09-11T09:19:54.189Z,42.13
2016-09-11T09:20:54.469Z,42.14
2016-09-11T09:21:54.155Z,42.13
2016-09-11T09:22:54.148Z,42.34
2016-09-11T09:23:54.130Z,41.95
2016-09-11T09:24:54.118Z,41.86
2016-09-11T09:25:54.105Z,41.86
2016-09-11T09:26:54.094Z,41.66
2016-09-11T09:27:54.080Z,41.66
2016-09-11T09:28:54.070Z,41.95
2016-09-11T09:29:54.052Z,41.56
2016-09-11T09:30:54.052Z,41.95
2016-09-11T09:31:54.028Z,41.95
2016-09-11T09:32:54.015Z,41.68
2016-09-11T09:33:54.007Z,41.86
2016-09-11T09:34:54.433Z,41.66
2016-09-11T09:35:53.978Z,41.66
2016-09-11T09:36:54.074Z,42.17
2016-09-11T09:37:53.956Z,42.07
2016-09-11T09:38:53.941Z,42.07
2016-09-11T09:39:54.228Z,42.17
2016-09-11T09:40:53.926Z,41.97
2016-09-11T09:41:53.937Z,42.17
2016-09-11T09:42:53.902Z,42.17
2016-09-11T09:43:53.890Z,42.05
2016-09-11T09:44:53.869Z,42.14
2016-09-11T09:45:53.854Z,42.14
2016-09-11T09:46:53.843Z,41.95
2016-09-11T09:47:53.829Z,42.14
2016-09-11T09:48:53.897Z,42.14
2016-09-11T09:49:53.802Z,42.14
2016-09-11T09:50:53.797Z,42.24
2016-09-11T09:51:53.777Z,42.24
2016-09-11T09:52:53.763Z,42.34
2016-09-11T09:53:53.803Z,42.05
2016-09-11T09:54:53.743Z,41.68
2016-09-11T09:55:53.727Z,41.86
2016-09-11T09:56:53.756Z,41.47
2016-09-11T09:57:53.701Z,41.58
2016-09-11T09:58:53.711Z,41.76
2016-09-11T09:59:53.684Z,42.05
2016-09-11T10:00:53.668Z,42.24
2016-09-11T10:01:53.655Z,42.05
2016-09-11T10:02:53.648Z,42.17
2016-09-11T10:03:53.628Z,41.95
2016-09-11T10:04:53.618Z,42.36
2016-09-11T10:05:53.606Z,42.26
2016-09-11T10:06:53.594Z,41.97
2016-09-11T10:07:53.608Z,41.49
2016-09-11T10:08:53.572Z,41.61
2016-09-11T10:09:53.556Z,41.99
2016-09-11T10:10:53.543Z,41.7
2016-09-11T10:11:53.537Z,41.61
2016-09-11T10:12:53.517Z,41.41
2016-09-11T10:13:53.514Z,41.22
2016-09-11T10:14:53.496Z,41.12
2016-09-11T10:15:53.495Z,41.31
2016-09-11T10:16:53.481Z,41.31
2016-09-11T10:17:53.862Z,41.31
2016-09-11T10:18:53.465Z,41.24
2016-09-11T10:19:53.735Z,41.31
2016-09-11T10:20:53.423Z,40.95
2016-09-11T10:21:53.410Z,41.05
2016-09-11T10:22:53.400Z,41.43
2016-09-11T10:23:53.389Z,40.85
2016-09-11T10:24:53.675Z,40.95
2016-09-11T10:25:53.363Z,40.67
2016-09-11T10:26:53.351Z,40.29
2016-09-11T10:27:53.356Z,40.09
2016-09-11T10:28:53.629Z,40
2016-09-11T10:29:53.323Z,40.67
2016-09-11T10:30:53.319Z,41.06
2016-09-11T10:31:53.300Z,40.56
2016-09-11T10:32:53.284Z,41.05
2016-09-11T10:33:53.275Z,40.95
2016-09-11T10:34:53.267Z,41.24
2016-09-11T10:35:53.249Z,40.95
2016-09-11T10:36:53.583Z,41.14
2016-09-11T10:37:53.229Z,41.33
2016-09-11T10:38:53.227Z,41.22
2016-09-11T10:39:53.203Z,41.61
2016-09-11T10:40:53.203Z,41.99
2016-09-11T10:41:53.182Z,41.8
2016-09-11T10:42:53.180Z,42.38
2016-09-11T10:43:53.154Z,42.29
2016-09-11T10:44:53.139Z,41.7
2016-09-11T10:45:53.128Z,42.19
2016-09-11T10:46:53.186Z,41.43
2016-09-11T10:47:53.108Z,41.14
2016-09-11T10:48:53.093Z,40.85
2016-09-11T10:49:53.084Z,40.95
2016-09-11T10:50:53.420Z,41.24
2016-09-11T10:51:53.062Z,41.22
2016-09-11T10:52:53.048Z,41.51
2016-09-11T10:53:53.335Z,41.31
2016-09-11T10:54:53.041Z,41.51
2016-09-11T10:55:53.040Z,41.31
2016-09-11T10:56:53.007Z,41.12
2016-09-11T10:57:52.991Z,41.61
2016-09-11T10:58:52.971Z,41.31
2016-09-11T10:59:52.961Z,41.31
2016-09-11T11:00:53.251Z,41.51
2016-09-11T11:01:52.961Z,41.61
2016-09-11T11:02:52.926Z,41.31
2016-09-11T11:03:52.921Z,41.14
2016-09-11T11:04:52.909Z,41.24
2016-09-11T11:05:52.889Z,40.36
2016-09-11T11:06:52.877Z,40.46
2016-09-11T11:07:52.924Z,40.66
2016-09-11T11:08:52.923Z,40.66
2016-09-11T11:09:52.850Z,40.17
2016-09-11T11:10:52.847Z,40.09
2016-09-11T11:11:52.818Z,40.19
2016-09-11T11:12:52.811Z,40.09
2016-09-11T11:13:52.799Z,40
2016-09-11T11:14:52.814Z,40
2016-09-11T11:15:52.771Z,40
2016-09-11T11:16:52.757Z,40.29
2016-09-11T11:17:52.747Z,40.95
2016-09-11T11:18:52.748Z,40.85
2016-09-11T11:19:52.747Z,40.85
2016-09-11T11:20:52.713Z,41.05
2016-09-11T11:21:52.700Z,40.66
2016-09-11T11:22:52.995Z,40.85
2016-09-11T11:23:52.685Z,40.95
2016-09-11T11:24:52.671Z,40.85
2016-09-11T11:25:52.652Z,40.26
2016-09-11T11:26:52.647Z,40.26
2016-09-11T11:27:52.936Z,40.39
2016-09-11T11:28:52.617Z,40
2016-09-11T11:29:52.608Z,39.9
2016-09-11T11:30:52.600Z,39.9
2016-09-11T11:31:52.593Z,40.48
2016-09-11T11:32:52.875Z,40.56
2016-09-11T11:33:52.566Z,40.19
2016-09-11T11:34:52.652Z,40.29
2016-09-11T11:35:52.543Z,40.29
2016-09-11T11:36:52.875Z,40.19
2016-09-11T11:37:52.517Z,40
2016-09-11T11:38:52.503Z,39.8
2016-09-11T11:39:52.792Z,39.9
2016-09-11T11:40:52.537Z,39.14
2016-09-11T11:41:52.474Z,39.34
2016-09-11T11:42:52.475Z,39.36
2016-09-11T11:43:52.450Z,39.36
2016-09-11T11:44:52.430Z,39.14
2016-09-11T11:45:52.729Z,39.34
2016-09-11T11:46:52.415Z,39.04
2016-09-11T11:47:52.406Z,38.96
2016-09-11T11:48:57.515Z,38.67
2016-09-11T11:49:52.383Z,38.57
2016-09-11T11:50:52.407Z,37.92
2016-09-11T11:51:52.423Z,37.92
2016-09-11T11:52:52.351Z,37.93
2016-09-11T11:53:52.330Z,37.35
2016-09-11T11:54:52.327Z,37.35
2016-09-11T11:55:52.607Z,37.93
2016-09-11T11:56:52.306Z,37.92
2016-09-11T11:57:52.591Z,37.34
2016-09-11T11:58:52.575Z,37.54
2016-09-11T11:59:52.571Z,37.45
2016-09-11T12:00:52.271Z,37.35
2016-09-11T12:01:52.250Z,37.35
2016-09-11T12:02:52.395Z,37.35
2016-09-11T12:03:52.223Z,37.35
2016-09-11T12:04:52.212Z,37.45
2016-09-11T12:05:52.201Z,37.06
2016-09-11T12:06:52.195Z,36.88
2016-09-11T12:07:52.234Z,37.08
2016-09-11T12:08:52.172Z,36.49
2016-09-11T12:09:52.480Z,36.88
2016-09-11T12:10:52.148Z,36.49
2016-09-11T12:11:52.141Z,36.69
2016-09-11T12:12:52.139Z,36.49
2016-09-11T12:13:52.428Z,36.59
2016-09-11T12:14:52.108Z,36.59
2016-09-11T12:15:52.095Z,36.59
2016-09-11T12:16:52.085Z,36.49
2016-09-11T12:17:52.125Z,36.4
2016-09-11T12:18:52.064Z,36.61
2016-09-11T12:19:52.098Z,36.12
2016-09-11T12:20:52.050Z,35.93
2016-09-11T12:21:52.053Z,35.93
2016-09-11T12:22:52.034Z,35.83
2016-09-11T12:23:52.011Z,35.83
2016-09-11T12:24:52.051Z,36.12
2016-09-11T12:25:52.007Z,35.93
2016-09-11T12:26:51.978Z,35.83
2016-09-11T12:27:51.974Z,36.02
2016-09-11T12:28:52.260Z,35.83
2016-09-11T12:29:51.953Z,35.73
2016-09-11T12:30:51.944Z,35.83
2016-09-11T12:31:51.933Z,35.83
2016-09-11T12:32:52.226Z,35.73
2016-09-11T12:33:51.917Z,35.53
2016-09-11T12:34:51.932Z,35.46
2016-09-11T12:35:51.899Z,35.16
2016-09-11T12:36:51.877Z,35.26
2016-09-11T12:37:51.871Z,35.36
2016-09-11T12:38:52.158Z,34.88
2016-09-11T12:39:51.858Z,34.99
2016-09-11T12:40:51.849Z,34.89
2016-09-11T12:41:51.827Z,34.79
2016-09-11T12:42:51.817Z,34.89
2016-09-11T12:43:51.811Z,34.79
2016-09-11T12:44:51.799Z,34.48
2016-09-11T12:45:51.802Z,34.79
2016-09-11T12:46:51.787Z,34.21
2016-09-11T12:47:51.784Z,34.4
2016-09-11T12:48:52.059Z,34.01
2016-09-11T12:49:51.751Z,34.12
2016-09-11T12:50:52.041Z,34.32
2016-09-11T12:51:51.814Z,33.83
2016-09-11T12:52:51.721Z,34.11
2016-09-11T12:53:51.711Z,33.92